Kemah, TX

12:05 PM CDT on October 21, 2014 (GMT -0500)
Waterford Harbor | Change Station
CLOSE
Current Station
Personal Weather Station
Location: Kemah, TX
Elevation: 30 ft
Nearby Weather Stations

Elev 30 ft 29.54 °N, 95.04 °W | Updated 9 minutes ago

Clear
Clear
74.3 °F
Feels Like 77 °F
N
1.1
Wind Variable Wind from SSW

Today
High -- | Low -- °F
--% Chance of Precip.
Yesterday
High -- | Low -- °F
Precip. -- in
7:25 AM 6:43 PM
Waning Crescent, 5% visible
Pressure 30.08 in
Visibility 10.0 miles
Clouds Clear
Heat Index 77 °F
Dew Point 62 °F
Humidity 65%
Rainfall 0.00 in
Snow Depth Not available.
UV 6 out of 12
Pollen 6.30 out of 12
PM2.5 Moderate
Flu Activity Sporadic
METAR KEFD 211650Z 07009KT 10SM CLR 23/13 A3008

More Conditions Fewer Conditions

Pressure 30.08 in
Visibility 10.0 miles
Clouds Clear
Heat Index 77 °F
Dew Point 62 °F
Humidity 65%
Rainfall 0.00 in
Snow Depth Not available.
UV 6 out of 12
Pollen 6.30 out of 12
PM2.5 Moderate
Flu Activity Sporadic
METAR KEFD 211650Z 07009KT 10SM CLR 23/13 A3008

More Conditions Fewer Conditions

10-Day Weather Forecast

Almanac

Astronomy

Oct. 21, 2014 Rise Set
Actual Time 7:25 AM CDT 6:43 PM CDT
Civil Twilight 7:01 AM CDT 7:07 PM CDT
Nautical Twilight 6:33 AM CDT 7:35 PM CDT
Astronomical Twilight 6:05 AM CDT 8:03 PM CDT
Moon 5:20 AM CDT 5:30 PM CDT
Length of Visible Light 12h 06m
Length of Day
11h 17m
Tomorrow will be 1m 39s shorter.
Waning Crescent, 5% of the Moon is Illuminated
Today
Waning Crescent
Oct 23
New
Oct 30
First Quarter
Nov 6
Full
Nov 14
Last Quarter

Today's Extremes

State Highs State Lows

Community

WunderPhotos

Upload Photos

1,763,713 photos uploaded!

Nearby

Air Quality

  Air Quality AQ Index Pollutant
Yesterday Moderate
OZONE
Yesterday Moderate
PM2.5
Current Moderate
PM2.5
Tuesday Moderate
OZONE
Tuesday Good
PM10
Wednesday Moderate
OZONE
Wednesday Good
PM10
Thursday Moderate
OZONE
Thursday Good
PM10
Friday Moderate
OZONE
Friday Good
PM10

Snow Depth

Station Depth Elevation
No new snow has been reported.

Earthquake Activity

City Distance Mag. Time & Date
No recent earthquake activity has been reported nearby.
Minimum magnitude displayed is 2.5.

Coastal Water Temperatures

Place Temperature
Eagle Point, TX 73.0 °F
USCG Freeport, TX 78.1 °F
Galveston Pier TX 78.1 °F
Galveston Bay (North Jetty), TX 75.9 °F
Rollover Pass, TX 73.0 °F

Nearby Weather Stations